createdAt,value
2018-05-23T00:00:43.972Z,99.90
2018-05-23T00:03:11.433Z,99.90
2018-05-23T00:05:38.869Z,99.90
2018-05-23T00:08:06.324Z,99.90
2018-05-23T00:10:33.771Z,99.90
2018-05-23T00:13:01.227Z,99.90
2018-05-23T00:15:28.681Z,99.90
2018-05-23T00:17:56.131Z,99.90
2018-05-23T00:20:24.347Z,99.90
2018-05-23T00:22:51.808Z,99.90
2018-05-23T00:25:19.236Z,99.90
2018-05-23T00:27:47.448Z,99.90
2018-05-23T00:30:14.901Z,99.90
2018-05-23T00:32:42.352Z,99.90
2018-05-23T00:35:09.800Z,99.90
2018-05-23T00:37:38.014Z,99.90
2018-05-23T00:40:05.471Z,99.90
2018-05-23T00:42:32.924Z,99.90
2018-05-23T00:45:00.365Z,99.90
2018-05-23T00:47:28.579Z,99.90
2018-05-23T00:49:56.033Z,99.90
2018-05-23T00:52:23.473Z,99.90
2018-05-23T00:55:03.505Z,99.90
2018-05-23T00:57:30.957Z,99.90
2018-05-23T00:59:58.417Z,99.90
2018-05-23T01:02:25.860Z,99.90
2018-05-23T01:04:53.312Z,99.90
2018-05-23T01:07:20.761Z,99.90
2018-05-23T01:09:48.222Z,99.90
2018-05-23T01:12:15.663Z,99.90
2018-05-23T01:14:43.123Z,99.90
2018-05-23T01:17:11.333Z,99.90
2018-05-23T01:19:38.792Z,99.90
2018-05-23T01:22:06.256Z,99.90
2018-05-23T01:24:33.714Z,99.90
2018-05-23T01:27:01.162Z,99.90
2018-05-23T01:29:28.624Z,99.90
2018-05-23T01:31:56.085Z,99.90
2018-05-23T01:34:23.540Z,99.90
2018-05-23T01:36:50.999Z,99.90
2018-05-23T01:39:19.228Z,99.90
2018-05-23T01:41:46.677Z,99.90
2018-05-23T01:44:14.138Z,99.90
2018-05-23T01:46:41.577Z,99.90
2018-05-23T01:49:20.810Z,99.90
2018-05-23T01:51:48.264Z,99.90
2018-05-23T01:54:15.712Z,99.90
2018-05-23T01:56:43.932Z,99.90
2018-05-23T01:59:11.384Z,99.90
2018-05-23T02:01:38.834Z,99.90
2018-05-23T02:04:06.273Z,99.90
2018-05-23T02:06:34.489Z,99.90
2018-05-23T02:09:01.927Z,99.90
2018-05-23T02:11:30.157Z,99.90
2018-05-23T02:13:58.382Z,99.90
2018-05-23T02:16:26.611Z,99.90
2018-05-23T02:18:54.052Z,99.90
2018-05-23T02:21:21.500Z,99.90
2018-05-23T02:23:48.940Z,99.90
2018-05-23T02:26:17.160Z,99.90
2018-05-23T02:28:44.599Z,99.90
2018-05-23T02:31:12.072Z,99.90
2018-05-23T02:33:39.501Z,99.90
2018-05-23T02:36:06.975Z,99.90
2018-05-23T02:38:35.185Z,99.90
2018-05-23T02:41:02.646Z,99.90
2018-05-23T02:43:30.093Z,99.90
2018-05-23T02:45:57.547Z,99.90
2018-05-23T02:48:25.749Z,99.90
2018-05-23T02:50:53.211Z,99.90
2018-05-23T02:53:20.674Z,99.90
2018-05-23T02:55:48.139Z,99.90
2018-05-23T02:58:15.572Z,99.90
2018-05-23T03:00:43.809Z,99.90
2018-05-23T03:03:11.278Z,99.90
2018-05-23T03:05:38.734Z,99.90
2018-05-23T03:08:06.956Z,99.90
2018-05-23T03:10:35.215Z,99.90
2018-05-23T03:13:02.665Z,99.90
2018-05-23T03:15:30.122Z,99.90
2018-05-23T03:17:57.581Z,99.90
2018-05-23T03:20:25.013Z,99.90
2018-05-23T03:22:52.468Z,99.90
2018-05-23T03:25:19.921Z,99.90
2018-05-23T03:27:47.377Z,99.90
2018-05-23T03:30:15.595Z,99.90
2018-05-23T03:32:43.038Z,99.90
2018-05-23T03:35:10.488Z,99.90
2018-05-23T03:37:37.963Z,99.90
2018-05-23T03:40:05.426Z,99.90
2018-05-23T03:42:32.892Z,99.90
2018-05-23T03:45:00.351Z,99.90
2018-05-23T03:47:27.825Z,99.90
2018-05-23T03:49:55.285Z,99.90
2018-05-23T03:52:22.743Z,99.90
2018-05-23T03:54:50.205Z,99.90
2018-05-23T03:57:17.666Z,99.90
2018-05-23T03:59:57.085Z,99.90
2018-05-23T04:02:36.637Z,99.90
2018-05-23T04:05:16.000Z,99.90
2018-05-23T04:07:44.277Z,99.90
2018-05-23T04:10:11.720Z,99.90
2018-05-23T04:12:39.173Z,99.90
2018-05-23T04:15:06.615Z,99.90
2018-05-23T04:17:34.841Z,99.90
2018-05-23T04:20:02.304Z,99.90
2018-05-23T04:22:29.773Z,99.90
2018-05-23T04:24:57.236Z,99.90
2018-05-23T04:27:24.674Z,99.90
2018-05-23T04:29:52.115Z,99.90
2018-05-23T04:32:19.568Z,99.90
2018-05-23T04:34:47.775Z,99.90
2018-05-23T04:37:15.228Z,99.90
2018-05-23T04:39:42.669Z,99.90
2018-05-23T04:42:10.888Z,99.90
2018-05-23T04:44:38.351Z,99.90
2018-05-23T04:47:05.815Z,99.90
2018-05-23T04:49:33.261Z,99.90
2018-05-23T04:52:00.706Z,99.90
2018-05-23T04:54:28.932Z,99.90
2018-05-23T04:56:56.393Z,99.90
2018-05-23T04:59:23.845Z,99.90
2018-05-23T05:01:51.290Z,99.90
2018-05-23T05:04:18.757Z,99.90
2018-05-23T05:06:46.219Z,99.90
2018-05-23T05:09:13.654Z,99.90
2018-05-23T05:11:41.876Z,99.90
2018-05-23T05:14:09.331Z,99.90
2018-05-23T05:16:36.796Z,99.90
2018-05-23T05:19:04.348Z,99.90
2018-05-23T05:21:31.801Z,99.90
2018-05-23T05:23:59.260Z,99.90
2018-05-23T05:26:26.703Z,99.90
2018-05-23T05:28:54.932Z,99.90
2018-05-23T05:31:22.381Z,99.90
2018-05-23T05:33:49.835Z,99.90
2018-05-23T05:36:17.289Z,99.90
2018-05-23T05:38:44.776Z,99.90
2018-05-23T05:41:12.965Z,99.90
2018-05-23T05:43:40.428Z,99.90
2018-05-23T05:46:07.870Z,99.90
2018-05-23T05:48:35.328Z,99.90
2018-05-23T05:51:02.788Z,99.90
2018-05-23T05:53:30.235Z,99.90
2018-05-23T05:55:58.451Z,99.90
2018-05-23T05:58:25.902Z,99.90
2018-05-23T06:00:53.364Z,99.90
2018-05-23T06:03:20.805Z,99.90
2018-05-23T06:05:48.265Z,99.90
2018-05-23T06:08:15.742Z,99.90
2018-05-23T06:10:43.207Z,99.90
2018-05-23T06:13:10.655Z,99.90
2018-05-23T06:15:38.117Z,99.90
2018-05-23T06:20:27.307Z,99.90
2018-05-23T06:22:55.508Z,99.90
2018-05-23T06:25:22.957Z,99.90
2018-05-23T06:27:50.403Z,99.90
2018-05-23T06:30:18.724Z,99.90
2018-05-23T06:32:46.080Z,99.90
2018-05-23T06:35:13.532Z,99.90
2018-05-23T06:37:41.031Z,99.90
2018-05-23T06:40:08.432Z,99.90
2018-05-23T06:42:36.652Z,99.90
2018-05-23T06:45:04.099Z,99.90
2018-05-23T06:47:31.574Z,99.90
2018-05-23T06:49:59.081Z,99.90
2018-05-23T06:52:26.484Z,99.90
2018-05-23T06:54:53.928Z,99.90
2018-05-23T06:57:22.153Z,99.90
2018-05-23T06:59:49.615Z,99.90
2018-05-23T07:02:17.857Z,99.90
2018-05-23T07:04:45.307Z,99.90
2018-05-23T07:07:13.532Z,99.90
2018-05-23T07:09:41.742Z,99.90
2018-05-23T07:12:09.191Z,99.90
2018-05-23T07:14:36.641Z,99.90
2018-05-23T07:17:04.091Z,99.90
2018-05-23T07:19:31.544Z,99.90
2018-05-23T07:21:59.018Z,99.90
2018-05-23T07:24:26.483Z,99.90
2018-05-23T07:26:53.935Z,99.90
2018-05-23T07:29:21.388Z,99.90
2018-05-23T07:31:48.928Z,99.90
2018-05-23T07:34:16.322Z,99.90
2018-05-23T07:36:43.779Z,99.90
2018-05-23T07:39:11.248Z,99.90
2018-05-23T07:41:38.709Z,99.90
2018-05-23T07:44:06.169Z,99.90
2018-05-23T07:46:33.624Z,99.90
2018-05-23T07:49:01.061Z,99.90
2018-05-23T07:51:29.283Z,99.90
2018-05-23T07:53:56.724Z,99.90
2018-05-23T07:56:24.193Z,99.90
2018-05-23T07:58:51.642Z,99.90
2018-05-23T08:01:19.097Z,99.90
2018-05-23T08:03:47.317Z,99.90
2018-05-23T08:06:14.763Z,99.90
2018-05-23T08:08:42.225Z,99.90
2018-05-23T08:11:09.687Z,99.90
2018-05-23T08:13:37.139Z,99.90
2018-05-23T08:16:04.591Z,99.90
2018-05-23T08:18:32.059Z,99.90
2018-05-23T08:20:59.518Z,99.90
2018-05-23T08:26:00.781Z,99.90
2018-05-23T08:28:29.012Z,99.90
2018-05-23T08:30:56.463Z,99.90
2018-05-23T08:33:23.922Z,99.90
2018-05-23T08:35:51.367Z,99.90
2018-05-23T08:38:18.826Z,99.90
2018-05-23T08:40:46.266Z,99.80
2018-05-23T08:43:14.484Z,99.90
2018-05-23T08:45:41.937Z,99.60
2018-05-23T08:48:09.399Z,99.60
2018-05-23T08:50:36.837Z,99.20
2018-05-23T08:53:05.065Z,99.30
2018-05-23T08:55:32.505Z,99.30
2018-05-23T08:57:59.967Z,99.50
2018-05-23T09:00:27.426Z,99.60
2018-05-23T09:02:54.900Z,98.80
2018-05-23T09:05:22.361Z,98.90
2018-05-23T09:07:49.824Z,98.90
2018-05-23T09:10:17.275Z,98.70
2018-05-23T09:12:44.737Z,99.70
2018-05-23T09:15:12.205Z,99.40
2018-05-23T09:17:39.663Z,99.40
2018-05-23T09:20:07.124Z,99.20
2018-05-23T09:22:34.589Z,99.40
2018-05-23T09:25:02.054Z,98.90
2018-05-23T09:27:29.514Z,98.80
2018-05-23T09:29:56.983Z,98.50
2018-05-23T09:32:24.434Z,99.00
2018-05-23T09:34:51.924Z,98.90
2018-05-23T09:37:19.393Z,98.70
2018-05-23T09:39:46.879Z,99.20
2018-05-23T09:42:14.320Z,98.70
2018-05-23T09:44:41.777Z,99.30
2018-05-23T09:47:09.242Z,98.90
2018-05-23T09:49:36.699Z,98.50
2018-05-23T09:52:04.162Z,99.10
2018-05-23T09:54:31.638Z,99.60
2018-05-23T09:56:59.092Z,99.00
2018-05-23T09:59:26.548Z,98.60
2018-05-23T10:01:53.996Z,99.20
2018-05-23T10:04:21.457Z,99.20
2018-05-23T10:06:48.909Z,99.80
2018-05-23T10:09:16.371Z,99.90
2018-05-23T10:11:43.838Z,99.60
2018-05-23T10:14:11.300Z,98.80
2018-05-23T10:16:38.763Z,99.10
2018-05-23T10:19:06.222Z,99.10
2018-05-23T10:21:33.671Z,98.10
2018-05-23T10:24:01.154Z,98.40
2018-05-23T10:26:28.720Z,98.60
2018-05-23T10:28:56.075Z,97.80
2018-05-23T10:31:23.547Z,98.00
2018-05-23T10:33:51.008Z,98.40
2018-05-23T10:36:18.468Z,98.50
2018-05-23T10:38:45.951Z,97.90
2018-05-23T10:41:13.384Z,98.00
2018-05-23T10:43:40.837Z,97.80
2018-05-23T10:46:08.319Z,97.70
2018-05-23T10:48:35.752Z,97.90
2018-05-23T10:51:03.973Z,96.90
2018-05-23T10:53:31.438Z,97.00
2018-05-23T10:55:58.910Z,97.00
2018-05-23T10:58:27.130Z,96.90
2018-05-23T11:00:55.361Z,97.10
2018-05-23T11:03:22.822Z,97.10
2018-05-23T11:05:50.348Z,96.70
2018-05-23T11:08:17.747Z,96.80
2018-05-23T11:10:45.208Z,96.40
2018-05-23T11:13:12.661Z,95.70
2018-05-23T11:15:40.136Z,96.70
2018-05-23T11:18:07.597Z,96.90
2018-05-23T11:20:35.375Z,96.60
2018-05-23T11:23:02.808Z,96.20
2018-05-23T11:25:30.270Z,95.90
2018-05-23T11:27:57.727Z,95.00
2018-05-23T11:30:25.173Z,95.30
2018-05-23T11:32:53.414Z,95.70
2018-05-23T11:35:20.860Z,95.70
2018-05-23T11:37:48.324Z,95.90
2018-05-23T11:40:15.786Z,95.00
2018-05-23T11:42:43.258Z,95.40
2018-05-23T11:45:10.712Z,95.60
2018-05-23T11:47:38.175Z,96.20
2018-05-23T11:50:05.619Z,95.30
2018-05-23T11:52:33.074Z,95.50
2018-05-23T11:55:00.526Z,94.80
2018-05-23T11:57:27.994Z,93.80
2018-05-23T11:59:55.452Z,94.90
2018-05-23T12:02:22.913Z,94.70
2018-05-23T12:04:50.354Z,94.20
2018-05-23T12:07:18.584Z,94.70
2018-05-23T12:09:46.042Z,94.70
2018-05-23T12:12:13.506Z,93.70
2018-05-23T12:14:40.952Z,94.20
2018-05-23T12:17:08.424Z,94.40
2018-05-23T12:19:35.941Z,93.20
2018-05-23T12:22:03.336Z,93.50
2018-05-23T12:24:30.795Z,93.10
2018-05-23T12:26:58.263Z,93.90
2018-05-23T12:29:25.748Z,93.60
2018-05-23T12:31:53.186Z,93.00
2018-05-23T12:34:20.646Z,92.40
2018-05-23T12:36:48.109Z,91.90
2018-05-23T12:39:15.560Z,92.80
2018-05-23T12:41:43.033Z,91.80
2018-05-23T12:44:10.465Z,91.30
2018-05-23T12:46:38.674Z,91.30
2018-05-23T12:49:06.140Z,91.30
2018-05-23T12:51:33.582Z,90.90
2018-05-23T12:54:01.052Z,91.50
2018-05-23T12:56:29.267Z,90.90
2018-05-23T12:58:56.723Z,90.90
2018-05-23T13:01:24.178Z,92.20
2018-05-23T13:03:51.636Z,89.50
2018-05-23T13:06:19.102Z,90.90
2018-05-23T13:08:46.536Z,91.30
2018-05-23T13:11:14.002Z,91.50
2018-05-23T13:13:41.451Z,91.40
2018-05-23T13:16:09.667Z,91.30
2018-05-23T13:18:37.136Z,91.30
2018-05-23T13:21:04.564Z,92.00
2018-05-23T13:23:32.013Z,92.60
2018-05-23T13:26:00.287Z,92.80
2018-05-23T13:28:27.663Z,92.80
2018-05-23T13:30:55.874Z,92.10
2018-05-23T13:33:23.325Z,92.10
2018-05-23T13:35:50.772Z,91.50
2018-05-23T13:38:18.986Z,91.60
2018-05-23T13:40:46.429Z,91.60
2018-05-23T13:43:13.886Z,92.00
2018-05-23T13:45:41.338Z,91.60
2018-05-23T13:48:08.807Z,91.70
2018-05-23T13:50:36.258Z,92.40
2018-05-23T13:53:04.488Z,91.70
2018-05-23T13:55:31.972Z,91.70
2018-05-23T13:57:59.432Z,90.90
2018-05-23T14:00:26.898Z,91.00
2018-05-23T14:02:54.365Z,90.40
2018-05-23T14:05:21.815Z,90.40
2018-05-23T14:07:49.257Z,90.90
2018-05-23T14:10:16.707Z,90.00
2018-05-23T14:12:44.147Z,90.50
2018-05-23T14:15:11.618Z,90.10
2018-05-23T14:17:39.058Z,89.50
2018-05-23T14:20:07.269Z,89.60
2018-05-23T14:22:34.726Z,89.60
2018-05-23T14:25:02.187Z,88.60
2018-05-23T14:27:29.629Z,88.70
2018-05-23T14:29:57.089Z,89.40
2018-05-23T14:32:25.315Z,90.50
2018-05-23T14:34:52.790Z,90.50
2018-05-23T14:37:20.249Z,90.00
2018-05-23T14:39:47.705Z,90.30
2018-05-23T14:42:15.146Z,90.70
2018-05-23T14:44:42.605Z,90.40
2018-05-23T14:47:10.044Z,90.90
2018-05-23T14:49:38.274Z,90.60
2018-05-23T14:52:05.736Z,90.90
2018-05-23T14:54:33.188Z,90.80
2018-05-23T14:57:00.642Z,91.40
2018-05-23T14:59:28.089Z,91.40
2018-05-23T15:01:55.538Z,91.20
2018-05-23T15:04:23.002Z,90.50
2018-05-23T15:06:51.212Z,90.60
2018-05-23T15:09:18.805Z,90.60
2018-05-23T15:11:46.147Z,91.00
2018-05-23T15:14:13.621Z,90.90
2018-05-23T15:16:41.053Z,91.40
2018-05-23T15:19:08.513Z,91.20
2018-05-23T15:21:35.974Z,91.00
2018-05-23T15:24:03.442Z,91.30
2018-05-23T15:26:30.904Z,91.00
2018-05-23T15:28:58.361Z,91.30
2018-05-23T15:31:25.886Z,91.20
2018-05-23T15:33:53.246Z,90.90
2018-05-23T15:36:21.457Z,90.90
2018-05-23T15:38:48.907Z,91.20
2018-05-23T15:41:16.370Z,91.10
2018-05-23T15:43:43.828Z,91.30
2018-05-23T15:46:12.050Z,91.20
2018-05-23T15:48:39.501Z,91.20
2018-05-23T15:51:06.983Z,91.10
2018-05-23T15:53:34.401Z,91.40
2018-05-23T15:56:01.853Z,91.70
2018-05-23T15:58:30.057Z,92.10
2018-05-23T16:00:57.520Z,92.00
2018-05-23T16:03:24.982Z,91.80
2018-05-23T16:05:52.437Z,92.00
2018-05-23T16:08:19.889Z,92.20
2018-05-23T16:10:47.368Z,91.70
2018-05-23T16:13:14.821Z,91.60
2018-05-23T16:15:42.280Z,91.50
2018-05-23T16:18:09.731Z,91.50
2018-05-23T16:20:37.980Z,91.30
2018-05-23T16:23:05.409Z,91.30
2018-05-23T16:25:32.859Z,91.50
2018-05-23T16:28:00.312Z,91.40
2018-05-23T16:30:27.765Z,91.00
2018-05-23T16:32:55.992Z,91.40
2018-05-23T16:35:23.433Z,91.40
2018-05-23T16:37:50.886Z,91.30
2018-05-23T16:40:18.325Z,92.00
2018-05-23T16:42:46.554Z,91.50
2018-05-23T16:45:14.784Z,91.80
2018-05-23T16:47:43.015Z,91.50
2018-05-23T16:50:10.477Z,91.60
2018-05-23T16:52:37.939Z,91.80
2018-05-23T16:55:05.387Z,91.90
2018-05-23T16:57:32.853Z,92.20
2018-05-23T17:00:00.304Z,91.90
2018-05-23T17:02:27.772Z,91.90
2018-05-23T17:04:55.241Z,92.20
2018-05-23T17:07:22.695Z,92.00
2018-05-23T17:09:50.151Z,92.10
2018-05-23T17:12:17.600Z,91.70
2018-05-23T17:14:45.063Z,92.10
2018-05-23T17:17:12.527Z,92.40
2018-05-23T17:19:39.956Z,92.20
2018-05-23T17:22:07.426Z,92.20
2018-05-23T17:24:35.641Z,92.90
2018-05-23T17:27:03.110Z,92.70
2018-05-23T17:29:30.567Z,92.50
2018-05-23T17:31:58.028Z,92.90
2018-05-23T17:34:25.491Z,93.20
2018-05-23T17:36:52.951Z,93.70
2018-05-23T17:39:20.401Z,93.40
2018-05-23T17:41:47.851Z,93.50
2018-05-23T17:44:16.061Z,93.30
2018-05-23T17:46:43.519Z,93.30
2018-05-23T17:49:10.957Z,93.40
2018-05-23T17:51:39.183Z,92.70
2018-05-23T17:54:06.647Z,92.70
2018-05-23T17:56:34.096Z,92.90
2018-05-23T17:59:01.569Z,92.50
2018-05-23T18:01:29.046Z,92.30
2018-05-23T18:03:56.510Z,91.70
2018-05-23T18:09:14.668Z,91.80
2018-05-23T18:11:42.118Z,91.40
2018-05-23T18:14:09.580Z,91.90
2018-05-23T18:16:37.040Z,92.00
2018-05-23T18:19:04.481Z,92.10
2018-05-23T18:21:31.942Z,91.90
2018-05-23T18:23:59.406Z,92.10
2018-05-23T18:26:26.845Z,92.20
2018-05-23T18:28:54.304Z,92.60
2018-05-23T18:31:22.514Z,92.50
2018-05-23T18:33:49.974Z,92.50
2018-05-23T18:36:17.414Z,92.60
2018-05-23T18:38:44.895Z,93.00
2018-05-23T18:41:12.357Z,93.00
2018-05-23T18:43:39.820Z,93.10
2018-05-23T18:46:07.269Z,93.50
2018-05-23T18:48:34.729Z,93.60
2018-05-23T18:51:02.189Z,93.70
2018-05-23T18:53:30.412Z,93.80
2018-05-23T18:55:57.861Z,93.80
2018-05-23T18:58:25.313Z,93.60
2018-05-23T19:00:52.783Z,93.70
2018-05-23T19:03:20.225Z,94.20
2018-05-23T19:05:47.699Z,93.90
2018-05-23T19:08:15.160Z,93.80
2018-05-23T19:10:42.620Z,94.00
2018-05-23T19:13:10.094Z,93.90
2018-05-23T19:15:37.551Z,93.90
2018-05-23T19:18:05.020Z,94.20
2018-05-23T19:20:32.475Z,94.40
2018-05-23T19:22:59.916Z,94.40
2018-05-23T19:25:28.144Z,94.60
2018-05-23T19:27:55.599Z,94.60
2018-05-23T19:30:23.126Z,94.70
2018-05-23T19:32:50.573Z,94.90
2018-05-23T19:35:18.834Z,95.10
2018-05-23T19:37:46.290Z,95.10
2018-05-23T19:40:13.753Z,95.30
2018-05-23T19:42:41.193Z,95.30
2018-05-23T19:45:08.705Z,95.40
2018-05-23T19:47:36.925Z,95.70
2018-05-23T19:50:04.382Z,95.70
2018-05-23T19:52:31.957Z,95.50
2018-05-23T19:54:59.299Z,95.80
2018-05-23T19:57:26.762Z,96.00
2018-05-23T19:59:54.220Z,96.00
2018-05-23T20:02:21.707Z,96.10
2018-05-23T20:04:49.170Z,96.10
2018-05-23T20:07:16.609Z,96.20
2018-05-23T20:09:44.066Z,96.40
2018-05-23T20:12:11.525Z,96.40
2018-05-23T20:14:38.985Z,96.50
2018-05-23T20:17:06.437Z,96.50
2018-05-23T20:19:34.662Z,96.80
2018-05-23T20:22:02.110Z,96.80
2018-05-23T20:24:29.573Z,96.80
2018-05-23T20:26:57.008Z,97.30
2018-05-23T20:29:24.481Z,97.20
2018-05-23T20:31:51.920Z,97.40
2018-05-23T20:34:20.172Z,97.30
2018-05-23T20:36:47.633Z,97.30
2018-05-23T20:39:15.091Z,97.20
2018-05-23T20:41:42.546Z,97.40
2018-05-23T20:44:09.993Z,97.30
2018-05-23T20:46:37.443Z,97.40
2018-05-23T20:49:04.904Z,97.40
2018-05-23T20:51:32.367Z,97.50
2018-05-23T20:53:59.849Z,97.70
2018-05-23T20:56:27.315Z,97.70
2018-05-23T20:58:54.837Z,97.80
2018-05-23T21:01:22.216Z,97.90
2018-05-23T21:03:49.671Z,97.80
2018-05-23T21:06:17.139Z,97.70
2018-05-23T21:08:44.579Z,97.70
2018-05-23T21:11:12.809Z,97.90
2018-05-23T21:13:40.277Z,97.90
2018-05-23T21:16:07.721Z,97.70
2018-05-23T21:18:35.190Z,97.80
2018-05-23T21:21:02.646Z,97.80
2018-05-23T21:23:30.093Z,97.50
2018-05-23T21:25:57.548Z,97.70
2018-05-23T21:28:24.994Z,97.60
2018-05-23T21:30:53.204Z,97.60
2018-05-23T21:33:20.649Z,97.60
2018-05-23T21:35:48.095Z,97.40
2018-05-23T21:38:16.306Z,97.30
2018-05-23T21:40:43.748Z,97.30
2018-05-23T21:43:11.199Z,97.30
2018-05-23T21:45:39.405Z,97.20
2018-05-23T21:48:06.853Z,97.20
2018-05-23T21:50:34.291Z,96.90
2018-05-23T21:53:02.526Z,97.70
2018-05-23T21:55:29.956Z,97.30
2018-05-23T21:57:57.408Z,97.30
2018-05-23T22:00:25.606Z,97.10
2018-05-23T22:02:53.104Z,97.00
2018-05-23T22:05:20.654Z,97.00
2018-05-23T22:07:48.096Z,97.10
2018-05-23T22:10:15.578Z,97.10
2018-05-23T22:12:43.026Z,97.30
2018-05-23T22:15:10.467Z,97.40
2018-05-23T22:17:38.683Z,97.60
2018-05-23T22:20:06.121Z,97.60
2018-05-23T22:22:33.580Z,97.80
2018-05-23T22:25:01.014Z,97.60
2018-05-23T22:27:28.462Z,97.40
2018-05-23T22:29:55.912Z,97.50
2018-05-23T22:32:23.365Z,97.30
2018-05-23T22:34:50.793Z,97.40
2018-05-23T22:37:18.233Z,97.20
2018-05-23T22:39:46.433Z,99.30
2018-05-23T22:42:13.902Z,99.60
2018-05-23T22:47:32.800Z,99.90
2018-05-23T22:50:00.255Z,99.90
2018-05-23T22:52:27.712Z,99.90
2018-05-23T22:54:55.171Z,99.90
2018-05-23T22:57:22.624Z,99.90
2018-05-23T22:59:50.082Z,99.90
2018-05-23T23:02:17.536Z,99.90
2018-05-23T23:04:44.996Z,99.90
2018-05-23T23:07:12.471Z,99.90
2018-05-23T23:09:39.945Z,99.90
2018-05-23T23:12:07.386Z,99.90
2018-05-23T23:14:34.853Z,99.90
2018-05-23T23:17:02.314Z,99.90
2018-05-23T23:19:29.788Z,99.90
2018-05-23T23:21:57.231Z,99.90
2018-05-23T23:24:25.454Z,99.90
2018-05-23T23:26:52.901Z,99.90
2018-05-23T23:29:20.369Z,99.90
2018-05-23T23:31:47.820Z,99.90
2018-05-23T23:34:15.292Z,99.90
2018-05-23T23:36:42.740Z,99.90
2018-05-23T23:39:10.198Z,99.90
2018-05-23T23:41:37.642Z,99.90
2018-05-23T23:44:05.859Z,99.70
2018-05-23T23:46:33.304Z,99.70
2018-05-23T23:49:00.871Z,99.90
2018-05-23T23:51:28.195Z,99.90
2018-05-23T23:53:55.665Z,99.90
2018-05-23T23:56:23.115Z,99.90
2018-05-23T23:58:50.579Z,99.90
